sensor_id;sensor_type;location;lat;lon;timestamp;P1;durP1;ratioP1;P2;durP2;ratioP2
65533;SDS011;53640;55.838;37.184;2022-11-21T00:00:46;15.77;;;8.85;;
65533;SDS011;53640;55.838;37.184;2022-11-21T00:03:13;20.42;;;10.95;;
65533;SDS011;53640;55.838;37.184;2022-11-21T00:05:41;19.88;;;10.82;;
65533;SDS011;53640;55.838;37.184;2022-11-21T00:08:10;13.98;;;8.93;;
65533;SDS011;53640;55.838;37.184;2022-11-21T00:10:38;18.48;;;9.68;;
65533;SDS011;53640;55.838;37.184;2022-11-21T00:13:04;21.45;;;9.95;;
65533;SDS011;53640;55.838;37.184;2022-11-21T00:15:32;17.63;;;8.60;;
65533;SDS011;53640;55.838;37.184;2022-11-21T00:18:03;16.20;;;7.95;;
65533;SDS011;53640;55.838;37.184;2022-11-21T00:20:30;18.73;;;9.00;;
65533;SDS011;53640;55.838;37.184;2022-11-21T00:22:56;17.13;;;9.35;;
65533;SDS011;53640;55.838;37.184;2022-11-21T00:25:23;15.52;;;8.90;;
65533;SDS011;53640;55.838;37.184;2022-11-21T00:27:51;21.13;;;10.63;;
65533;SDS011;53640;55.838;37.184;2022-11-21T00:30:17;20.00;;;10.93;;
65533;SDS011;53640;55.838;37.184;2022-11-21T00:32:44;20.13;;;10.65;;
65533;SDS011;53640;55.838;37.184;2022-11-21T00:35:10;21.60;;;9.95;;
65533;SDS011;53640;55.838;37.184;2022-11-21T00:37:38;20.27;;;11.05;;
65533;SDS011;53640;55.838;37.184;2022-11-21T00:40:04;17.95;;;10.55;;
65533;SDS011;53640;55.838;37.184;2022-11-21T00:42:33;16.20;;;9.20;;
65533;SDS011;53640;55.838;37.184;2022-11-21T00:44:59;16.33;;;9.70;;
65533;SDS011;53640;55.838;37.184;2022-11-21T00:47:25;23.75;;;10.90;;
65533;SDS011;53640;55.838;37.184;2022-11-21T00:49:52;21.98;;;9.68;;
65533;SDS011;53640;55.838;37.184;2022-11-21T00:52:18;22.55;;;10.57;;
65533;SDS011;53640;55.838;37.184;2022-11-21T00:54:44;21.98;;;10.00;;
65533;SDS011;53640;55.838;37.184;2022-11-21T00:57:10;20.88;;;9.52;;
65533;SDS011;53640;55.838;37.184;2022-11-21T00:59:37;17.77;;;8.63;;
65533;SDS011;53640;55.838;37.184;2022-11-21T01:02:03;24.27;;;10.50;;
65533;SDS011;53640;55.838;37.184;2022-11-21T01:04:30;19.77;;;9.70;;
65533;SDS011;53640;55.838;37.184;2022-11-21T01:06:58;25.15;;;12.40;;
65533;SDS011;53640;55.838;37.184;2022-11-21T01:09:26;16.23;;;9.13;;
65533;SDS011;53640;55.838;37.184;2022-11-21T01:11:53;23.15;;;11.32;;
65533;SDS011;53640;55.838;37.184;2022-11-21T01:14:22;21.52;;;11.45;;
65533;SDS011;53640;55.838;37.184;2022-11-21T01:16:49;16.83;;;8.45;;
65533;SDS011;53640;55.838;37.184;2022-11-21T01:19:15;22.67;;;11.18;;
65533;SDS011;53640;55.838;37.184;2022-11-21T01:21:41;22.65;;;10.82;;
65533;SDS011;53640;55.838;37.184;2022-11-21T01:24:11;27.35;;;12.90;;
65533;SDS011;53640;55.838;37.184;2022-11-21T01:26:38;25.05;;;12.18;;
65533;SDS011;53640;55.838;37.184;2022-11-21T01:29:04;23.52;;;12.38;;
65533;SDS011;53640;55.838;37.184;2022-11-21T01:31:33;25.60;;;11.82;;
65533;SDS011;53640;55.838;37.184;2022-11-21T01:34:00;25.02;;;12.15;;
65533;SDS011;53640;55.838;37.184;2022-11-21T01:36:27;23.63;;;10.85;;
65533;SDS011;53640;55.838;37.184;2022-11-21T01:38:59;25.42;;;13.32;;
65533;SDS011;53640;55.838;37.184;2022-11-21T01:41:29;24.63;;;10.85;;
65533;SDS011;53640;55.838;37.184;2022-11-21T01:44:05;27.25;;;11.13;;
65533;SDS011;53640;55.838;37.184;2022-11-21T01:46:39;18.80;;;9.68;;
65533;SDS011;53640;55.838;37.184;2022-11-21T01:54:25;34.95;;;14.32;;
65533;SDS011;53640;55.838;37.184;2022-11-21T02:02:14;27.77;;;12.88;;
65533;SDS011;53640;55.838;37.184;2022-11-21T02:04:43;26.63;;;11.45;;
65533;SDS011;53640;55.838;37.184;2022-11-21T02:07:10;30.98;;;13.82;;
65533;SDS011;53640;55.838;37.184;2022-11-21T02:09:40;27.92;;;13.02;;
65533;SDS011;53640;55.838;37.184;2022-11-21T02:12:12;30.33;;;12.82;;
65533;SDS011;53640;55.838;37.184;2022-11-21T02:15:06;29.27;;;13.57;;
65533;SDS011;53640;55.838;37.184;2022-11-21T02:17:33;26.60;;;12.27;;
65533;SDS011;53640;55.838;37.184;2022-11-21T02:20:00;25.75;;;11.77;;
65533;SDS011;53640;55.838;37.184;2022-11-21T02:22:41;24.15;;;11.27;;
65533;SDS011;53640;55.838;37.184;2022-11-21T02:25:21;25.42;;;12.43;;
65533;SDS011;53640;55.838;37.184;2022-11-21T02:27:52;23.85;;;11.65;;
65533;SDS011;53640;55.838;37.184;2022-11-21T02:30:24;21.88;;;10.48;;
65533;SDS011;53640;55.838;37.184;2022-11-21T02:32:52;21.98;;;10.85;;
65533;SDS011;53640;55.838;37.184;2022-11-21T02:35:18;27.88;;;12.90;;
65533;SDS011;53640;55.838;37.184;2022-11-21T02:37:46;28.25;;;12.52;;
65533;SDS011;53640;55.838;37.184;2022-11-21T02:45:30;22.85;;;10.45;;
65533;SDS011;53640;55.838;37.184;2022-11-21T02:48:00;22.35;;;10.65;;
65533;SDS011;53640;55.838;37.184;2022-11-21T02:50:28;23.92;;;11.63;;
65533;SDS011;53640;55.838;37.184;2022-11-21T02:52:56;28.08;;;12.50;;
65533;SDS011;53640;55.838;37.184;2022-11-21T02:55:22;27.80;;;12.02;;
65533;SDS011;53640;55.838;37.184;2022-11-21T02:57:49;23.98;;;10.98;;
65533;SDS011;53640;55.838;37.184;2022-11-21T03:00:16;23.55;;;11.93;;
65533;SDS011;53640;55.838;37.184;2022-11-21T03:02:43;24.98;;;12.15;;
65533;SDS011;53640;55.838;37.184;2022-11-21T03:05:10;22.65;;;11.98;;
65533;SDS011;53640;55.838;37.184;2022-11-21T03:07:38;32.10;;;12.13;;
65533;SDS011;53640;55.838;37.184;2022-11-21T03:10:04;26.67;;;12.18;;
65533;SDS011;53640;55.838;37.184;2022-11-21T03:12:31;22.38;;;11.00;;
65533;SDS011;53640;55.838;37.184;2022-11-21T03:14:57;24.23;;;11.10;;
65533;SDS011;53640;55.838;37.184;2022-11-21T03:17:24;17.75;;;9.38;;
65533;SDS011;53640;55.838;37.184;2022-11-21T03:19:50;22.70;;;10.57;;
65533;SDS011;53640;55.838;37.184;2022-11-21T03:22:16;17.60;;;9.77;;
65533;SDS011;53640;55.838;37.184;2022-11-21T03:24:42;24.10;;;11.52;;
65533;SDS011;53640;55.838;37.184;2022-11-21T03:27:09;25.25;;;10.70;;
65533;SDS011;53640;55.838;37.184;2022-11-21T03:29:35;21.73;;;10.30;;
65533;SDS011;53640;55.838;37.184;2022-11-21T03:32:02;25.00;;;12.25;;
65533;SDS011;53640;55.838;37.184;2022-11-21T03:34:28;21.88;;;11.52;;
65533;SDS011;53640;55.838;37.184;2022-11-21T03:36:54;20.75;;;10.27;;
65533;SDS011;53640;55.838;37.184;2022-11-21T03:39:21;24.95;;;11.20;;
65533;SDS011;53640;55.838;37.184;2022-11-21T03:41:47;22.00;;;10.77;;
65533;SDS011;53640;55.838;37.184;2022-11-21T03:44:13;19.30;;;10.32;;
65533;SDS011;53640;55.838;37.184;2022-11-21T03:46:41;19.33;;;10.77;;
65533;SDS011;53640;55.838;37.184;2022-11-21T03:49:11;19.95;;;10.82;;
65533;SDS011;53640;55.838;37.184;2022-11-21T03:51:39;25.13;;;11.50;;
65533;SDS011;53640;55.838;37.184;2022-11-21T03:54:06;24.65;;;11.82;;
65533;SDS011;53640;55.838;37.184;2022-11-21T03:56:33;26.23;;;12.73;;
65533;SDS011;53640;55.838;37.184;2022-11-21T03:59:00;21.67;;;10.85;;
65533;SDS011;53640;55.838;37.184;2022-11-21T04:01:28;21.25;;;10.20;;
65533;SDS011;53640;55.838;37.184;2022-11-21T04:03:54;26.15;;;11.32;;
65533;SDS011;53640;55.838;37.184;2022-11-21T04:06:21;21.33;;;10.90;;
65533;SDS011;53640;55.838;37.184;2022-11-21T04:08:48;27.83;;;12.50;;
65533;SDS011;53640;55.838;37.184;2022-11-21T04:11:15;21.92;;;11.02;;
65533;SDS011;53640;55.838;37.184;2022-11-21T04:13:41;22.27;;;10.23;;
65533;SDS011;53640;55.838;37.184;2022-11-21T04:16:08;23.58;;;10.60;;
65533;SDS011;53640;55.838;37.184;2022-11-21T04:18:34;22.02;;;11.60;;
65533;SDS011;53640;55.838;37.184;2022-11-21T04:21:02;20.60;;;10.50;;
65533;SDS011;53640;55.838;37.184;2022-11-21T04:23:30;24.58;;;12.32;;
65533;SDS011;53640;55.838;37.184;2022-11-21T04:25:57;25.25;;;11.80;;
65533;SDS011;53640;55.838;37.184;2022-11-21T04:28:24;22.17;;;11.20;;
65533;SDS011;53640;55.838;37.184;2022-11-21T04:30:50;21.00;;;10.43;;
65533;SDS011;53640;55.838;37.184;2022-11-21T04:33:17;22.38;;;10.55;;
65533;SDS011;53640;55.838;37.184;2022-11-21T04:43:45;17.75;;;8.82;;
65533;SDS011;53640;55.838;37.184;2022-11-21T04:47:31;20.58;;;9.38;;
65533;SDS011;53640;55.838;37.184;2022-11-21T04:59:22;20.80;;;9.88;;
65533;SDS011;53640;55.838;37.184;2022-11-21T05:02:17;19.70;;;9.60;;
65533;SDS011;53640;55.838;37.184;2022-11-21T05:05:02;20.73;;;10.18;;
65533;SDS011;53640;55.838;37.184;2022-11-21T05:07:36;20.13;;;9.18;;
65533;SDS011;53640;55.838;37.184;2022-11-21T05:10:04;24.20;;;12.77;;
65533;SDS011;53640;55.838;37.184;2022-11-21T05:12:31;23.73;;;11.95;;
65533;SDS011;53640;55.838;37.184;2022-11-21T05:15:16;24.95;;;12.60;;
65533;SDS011;53640;55.838;37.184;2022-11-21T05:17:43;25.42;;;12.95;;
65533;SDS011;53640;55.838;37.184;2022-11-21T05:20:09;17.52;;;9.63;;
65533;SDS011;53640;55.838;37.184;2022-11-21T05:22:37;19.52;;;9.50;;
65533;SDS011;53640;55.838;37.184;2022-11-21T05:25:03;20.27;;;10.15;;
65533;SDS011;53640;55.838;37.184;2022-11-21T05:27:30;19.80;;;10.40;;
65533;SDS011;53640;55.838;37.184;2022-11-21T05:29:56;22.40;;;10.82;;
65533;SDS011;53640;55.838;37.184;2022-11-21T05:32:23;19.00;;;9.27;;
65533;SDS011;53640;55.838;37.184;2022-11-21T05:34:50;19.13;;;8.43;;
65533;SDS011;53640;55.838;37.184;2022-11-21T05:37:17;21.65;;;10.23;;
65533;SDS011;53640;55.838;37.184;2022-11-21T05:39:44;15.82;;;8.70;;
65533;SDS011;53640;55.838;37.184;2022-11-21T05:42:10;17.48;;;9.07;;
65533;SDS011;53640;55.838;37.184;2022-11-21T05:44:36;18.75;;;9.30;;
65533;SDS011;53640;55.838;37.184;2022-11-21T05:47:02;21.17;;;9.57;;
65533;SDS011;53640;55.838;37.184;2022-11-21T05:49:29;21.65;;;12.10;;
65533;SDS011;53640;55.838;37.184;2022-11-21T05:51:55;23.65;;;11.88;;
65533;SDS011;53640;55.838;37.184;2022-11-21T05:54:21;19.92;;;10.48;;
65533;SDS011;53640;55.838;37.184;2022-11-21T05:56:48;22.88;;;12.30;;
65533;SDS011;53640;55.838;37.184;2022-11-21T05:59:14;18.67;;;10.43;;
65533;SDS011;53640;55.838;37.184;2022-11-21T06:01:40;21.30;;;11.35;;
65533;SDS011;53640;55.838;37.184;2022-11-21T06:04:25;20.70;;;10.48;;
65533;SDS011;53640;55.838;37.184;2022-11-21T06:06:51;22.85;;;12.70;;
65533;SDS011;53640;55.838;37.184;2022-11-21T06:09:18;23.55;;;13.63;;
65533;SDS011;53640;55.838;37.184;2022-11-21T06:11:44;21.40;;;12.20;;
65533;SDS011;53640;55.838;37.184;2022-11-21T06:14:11;23.45;;;11.23;;
65533;SDS011;53640;55.838;37.184;2022-11-21T06:16:38;23.15;;;12.60;;
65533;SDS011;53640;55.838;37.184;2022-11-21T06:19:04;15.68;;;9.38;;
65533;SDS011;53640;55.838;37.184;2022-11-21T06:21:30;21.48;;;11.98;;
65533;SDS011;53640;55.838;37.184;2022-11-21T06:24:02;23.63;;;10.88;;
65533;SDS011;53640;55.838;37.184;2022-11-21T06:26:28;22.00;;;11.27;;
65533;SDS011;53640;55.838;37.184;2022-11-21T06:28:56;23.70;;;12.77;;
65533;SDS011;53640;55.838;37.184;2022-11-21T06:31:23;23.50;;;12.07;;
65533;SDS011;53640;55.838;37.184;2022-11-21T06:33:55;25.38;;;12.15;;
65533;SDS011;53640;55.838;37.184;2022-11-21T06:36:24;18.20;;;8.85;;
65533;SDS011;53640;55.838;37.184;2022-11-21T06:38:53;22.60;;;10.88;;
65533;SDS011;53640;55.838;37.184;2022-11-21T06:41:22;23.25;;;12.82;;
65533;SDS011;53640;55.838;37.184;2022-11-21T06:43:51;24.42;;;13.90;;
65533;SDS011;53640;55.838;37.184;2022-11-21T06:46:18;23.85;;;13.07;;
65533;SDS011;53640;55.838;37.184;2022-11-21T06:48:44;18.65;;;11.13;;
65533;SDS011;53640;55.838;37.184;2022-11-21T06:51:17;18.70;;;9.48;;
65533;SDS011;53640;55.838;37.184;2022-11-21T06:53:52;19.00;;;9.90;;
65533;SDS011;53640;55.838;37.184;2022-11-21T06:56:23;22.48;;;12.68;;
65533;SDS011;53640;55.838;37.184;2022-11-21T06:58:51;18.92;;;9.70;;
65533;SDS011;53640;55.838;37.184;2022-11-21T07:01:17;25.83;;;12.75;;
65533;SDS011;53640;55.838;37.184;2022-11-21T07:03:44;20.38;;;9.95;;
65533;SDS011;53640;55.838;37.184;2022-11-21T07:06:10;17.15;;;9.45;;
65533;SDS011;53640;55.838;37.184;2022-11-21T07:08:36;21.88;;;12.25;;
65533;SDS011;53640;55.838;37.184;2022-11-21T07:11:06;25.15;;;13.60;;
65533;SDS011;53640;55.838;37.184;2022-11-21T07:13:34;24.52;;;12.65;;
65533;SDS011;53640;55.838;37.184;2022-11-21T07:16:02;25.00;;;12.18;;
65533;SDS011;53640;55.838;37.184;2022-11-21T07:18:30;22.98;;;12.30;;
65533;SDS011;53640;55.838;37.184;2022-11-21T07:21:03;24.70;;;13.15;;
65533;SDS011;53640;55.838;37.184;2022-11-21T07:23:31;26.20;;;11.30;;
65533;SDS011;53640;55.838;37.184;2022-11-21T07:26:00;20.27;;;11.15;;
65533;SDS011;53640;55.838;37.184;2022-11-21T07:28:28;21.77;;;11.05;;
65533;SDS011;53640;55.838;37.184;2022-11-21T07:30:55;22.88;;;12.63;;
65533;SDS011;53640;55.838;37.184;2022-11-21T07:33:22;25.52;;;12.95;;
65533;SDS011;53640;55.838;37.184;2022-11-21T07:35:49;29.08;;;12.95;;
65533;SDS011;53640;55.838;37.184;2022-11-21T07:38:17;21.10;;;12.25;;
65533;SDS011;53640;55.838;37.184;2022-11-21T07:40:44;23.70;;;11.85;;
65533;SDS011;53640;55.838;37.184;2022-11-21T07:43:10;19.17;;;10.70;;
65533;SDS011;53640;55.838;37.184;2022-11-21T07:45:37;25.00;;;13.45;;
65533;SDS011;53640;55.838;37.184;2022-11-21T07:48:05;22.42;;;11.23;;
65533;SDS011;53640;55.838;37.184;2022-11-21T07:50:33;21.65;;;11.00;;
65533;SDS011;53640;55.838;37.184;2022-11-21T07:53:00;21.40;;;11.75;;
65533;SDS011;53640;55.838;37.184;2022-11-21T07:55:29;22.05;;;11.73;;
65533;SDS011;53640;55.838;37.184;2022-11-21T07:58:06;21.77;;;12.43;;
65533;SDS011;53640;55.838;37.184;2022-11-21T08:00:35;22.23;;;12.65;;
65533;SDS011;53640;55.838;37.184;2022-11-21T08:03:03;23.00;;;12.75;;
65533;SDS011;53640;55.838;37.184;2022-11-21T08:05:36;20.00;;;11.25;;
65533;SDS011;53640;55.838;37.184;2022-11-21T08:08:06;21.77;;;11.45;;
65533;SDS011;53640;55.838;37.184;2022-11-21T08:10:36;23.52;;;12.32;;
65533;SDS011;53640;55.838;37.184;2022-11-21T08:13:04;22.13;;;11.90;;
65533;SDS011;53640;55.838;37.184;2022-11-21T08:15:30;24.00;;;12.70;;
65533;SDS011;53640;55.838;37.184;2022-11-21T08:17:57;21.05;;;11.85;;
65533;SDS011;53640;55.838;37.184;2022-11-21T08:20:26;21.73;;;12.35;;
65533;SDS011;53640;55.838;37.184;2022-11-21T08:22:55;21.80;;;12.95;;
65533;SDS011;53640;55.838;37.184;2022-11-21T08:25:22;23.13;;;11.90;;
65533;SDS011;53640;55.838;37.184;2022-11-21T08:27:48;25.40;;;12.73;;
65533;SDS011;53640;55.838;37.184;2022-11-21T08:30:14;23.13;;;12.27;;
65533;SDS011;53640;55.838;37.184;2022-11-21T08:32:41;21.30;;;12.05;;
65533;SDS011;53640;55.838;37.184;2022-11-21T08:35:07;21.95;;;12.35;;
65533;SDS011;53640;55.838;37.184;2022-11-21T08:37:35;22.38;;;10.32;;
65533;SDS011;53640;55.838;37.184;2022-11-21T08:40:02;17.73;;;8.98;;
65533;SDS011;53640;55.838;37.184;2022-11-21T08:42:30;17.23;;;8.65;;
65533;SDS011;53640;55.838;37.184;2022-11-21T08:44:59;18.90;;;10.85;;
65533;SDS011;53640;55.838;37.184;2022-11-21T08:47:25;23.40;;;9.75;;
65533;SDS011;53640;55.838;37.184;2022-11-21T08:49:51;18.90;;;9.27;;
65533;SDS011;53640;55.838;37.184;2022-11-21T08:52:18;19.52;;;9.88;;
65533;SDS011;53640;55.838;37.184;2022-11-21T08:54:44;15.77;;;8.63;;
65533;SDS011;53640;55.838;37.184;2022-11-21T08:57:11;16.33;;;9.00;;
65533;SDS011;53640;55.838;37.184;2022-11-21T08:59:37;13.27;;;7.75;;
65533;SDS011;53640;55.838;37.184;2022-11-21T09:02:04;19.45;;;9.07;;
65533;SDS011;53640;55.838;37.184;2022-11-21T09:04:30;16.17;;;8.13;;
65533;SDS011;53640;55.838;37.184;2022-11-21T09:06:56;22.67;;;9.07;;
65533;SDS011;53640;55.838;37.184;2022-11-21T09:09:23;18.88;;;9.43;;
65533;SDS011;53640;55.838;37.184;2022-11-21T09:11:49;16.65;;;9.05;;
65533;SDS011;53640;55.838;37.184;2022-11-21T09:14:18;16.40;;;8.82;;
65533;SDS011;53640;55.838;37.184;2022-11-21T09:17:03;16.48;;;8.82;;
65533;SDS011;53640;55.838;37.184;2022-11-21T09:19:49;13.85;;;7.97;;
65533;SDS011;53640;55.838;37.184;2022-11-21T09:22:15;16.33;;;9.07;;
65533;SDS011;53640;55.838;37.184;2022-11-21T09:24:42;15.40;;;8.90;;
65533;SDS011;53640;55.838;37.184;2022-11-21T09:27:08;15.60;;;8.60;;
65533;SDS011;53640;55.838;37.184;2022-11-21T09:29:34;20.10;;;10.23;;
65533;SDS011;53640;55.838;37.184;2022-11-21T09:32:00;36.03;;;18.27;;
65533;SDS011;53640;55.838;37.184;2022-11-21T09:34:27;37.88;;;19.55;;
65533;SDS011;53640;55.838;37.184;2022-11-21T09:36:56;24.00;;;12.70;;
65533;SDS011;53640;55.838;37.184;2022-11-21T09:39:23;19.92;;;10.07;;
65533;SDS011;53640;55.838;37.184;2022-11-21T09:44:38;15.93;;;9.35;;
65533;SDS011;53640;55.838;37.184;2022-11-21T09:52:47;14.82;;;8.95;;
65533;SDS011;53640;55.838;37.184;2022-11-21T09:58:17;16.08;;;8.40;;
65533;SDS011;53640;55.838;37.184;2022-11-21T10:00:51;17.83;;;9.45;;
65533;SDS011;53640;55.838;37.184;2022-11-21T10:03:19;15.25;;;8.52;;
65533;SDS011;53640;55.838;37.184;2022-11-21T10:05:48;16.98;;;9.70;;
65533;SDS011;53640;55.838;37.184;2022-11-21T10:08:22;16.65;;;9.00;;
65533;SDS011;53640;55.838;37.184;2022-11-21T10:11:11;14.30;;;8.00;;
65533;SDS011;53640;55.838;37.184;2022-11-21T10:13:50;17.52;;;9.02;;
65533;SDS011;53640;55.838;37.184;2022-11-21T10:22:09;14.68;;;8.75;;
65533;SDS011;53640;55.838;37.184;2022-11-21T10:25:19;17.67;;;8.55;;
65533;SDS011;53640;55.838;37.184;2022-11-21T10:27:50;13.63;;;8.30;;
65533;SDS011;53640;55.838;37.184;2022-11-21T10:30:19;14.98;;;8.10;;
65533;SDS011;53640;55.838;37.184;2022-11-21T10:32:51;15.20;;;8.23;;
65533;SDS011;53640;55.838;37.184;2022-11-21T10:35:22;16.27;;;8.40;;
65533;SDS011;53640;55.838;37.184;2022-11-21T10:37:51;14.25;;;8.23;;
65533;SDS011;53640;55.838;37.184;2022-11-21T10:43:05;18.42;;;9.63;;
65533;SDS011;53640;55.838;37.184;2022-11-21T10:45:58;17.25;;;8.88;;
65533;SDS011;53640;55.838;37.184;2022-11-21T10:48:24;17.35;;;8.40;;
65533;SDS011;53640;55.838;37.184;2022-11-21T10:53:30;15.02;;;8.48;;
65533;SDS011;53640;55.838;37.184;2022-11-21T10:56:20;15.35;;;8.82;;
65533;SDS011;53640;55.838;37.184;2022-11-21T10:58:51;15.90;;;8.93;;
65533;SDS011;53640;55.838;37.184;2022-11-21T11:01:26;12.63;;;8.23;;
65533;SDS011;53640;55.838;37.184;2022-11-21T11:04:05;19.30;;;9.93;;
65533;SDS011;53640;55.838;37.184;2022-11-21T11:06:38;19.17;;;11.13;;
65533;SDS011;53640;55.838;37.184;2022-11-21T11:09:06;17.75;;;10.05;;
65533;SDS011;53640;55.838;37.184;2022-11-21T11:11:47;16.58;;;9.32;;
65533;SDS011;53640;55.838;37.184;2022-11-21T11:14:14;18.25;;;9.02;;
65533;SDS011;53640;55.838;37.184;2022-11-21T11:16:43;20.35;;;9.70;;
65533;SDS011;53640;55.838;37.184;2022-11-21T11:29:15;23.83;;;10.80;;
65533;SDS011;53640;55.838;37.184;2022-11-21T11:34:26;17.42;;;10.18;;
65533;SDS011;53640;55.838;37.184;2022-11-21T11:37:44;17.60;;;9.82;;
65533;SDS011;53640;55.838;37.184;2022-11-21T11:43:23;22.08;;;10.93;;
65533;SDS011;53640;55.838;37.184;2022-11-21T12:02:17;13.35;;;8.00;;
65533;SDS011;53640;55.838;37.184;2022-11-21T12:04:56;15.45;;;9.27;;
65533;SDS011;53640;55.838;37.184;2022-11-21T12:07:43;14.30;;;8.60;;
65533;SDS011;53640;55.838;37.184;2022-11-21T12:10:26;18.35;;;9.25;;
65533;SDS011;53640;55.838;37.184;2022-11-21T12:13:03;15.88;;;9.40;;
65533;SDS011;53640;55.838;37.184;2022-11-21T12:15:39;22.80;;;11.52;;
65533;SDS011;53640;55.838;37.184;2022-11-21T12:23:42;18.42;;;9.90;;
65533;SDS011;53640;55.838;37.184;2022-11-21T12:29:19;16.25;;;9.35;;
65533;SDS011;53640;55.838;37.184;2022-11-21T12:32:02;18.83;;;9.98;;
65533;SDS011;53640;55.838;37.184;2022-11-21T12:34:45;17.60;;;9.07;;
65533;SDS011;53640;55.838;37.184;2022-11-21T12:46:23;37.42;;;15.60;;
65533;SDS011;53640;55.838;37.184;2022-11-21T12:49:02;34.65;;;13.27;;
65533;SDS011;53640;55.838;37.184;2022-11-21T12:52:09;29.13;;;12.13;;
65533;SDS011;53640;55.838;37.184;2022-11-21T12:55:23;21.23;;;11.65;;
65533;SDS011;53640;55.838;37.184;2022-11-21T13:06:53;19.33;;;10.45;;
65533;SDS011;53640;55.838;37.184;2022-11-21T13:12:05;19.17;;;10.10;;
65533;SDS011;53640;55.838;37.184;2022-11-21T13:15:43;22.48;;;9.63;;
65533;SDS011;53640;55.838;37.184;2022-11-21T13:18:19;16.33;;;8.88;;
65533;SDS011;53640;55.838;37.184;2022-11-21T13:20:53;14.57;;;9.38;;
65533;SDS011;53640;55.838;37.184;2022-11-21T13:23:39;17.52;;;9.90;;
65533;SDS011;53640;55.838;37.184;2022-11-21T13:29:06;16.77;;;9.38;;
65533;SDS011;53640;55.838;37.184;2022-11-21T13:38:30;19.08;;;10.20;;
65533;SDS011;53640;55.838;37.184;2022-11-21T13:47:07;19.45;;;10.30;;
65533;SDS011;53640;55.838;37.184;2022-11-21T13:50:12;20.35;;;8.98;;
65533;SDS011;53640;55.838;37.184;2022-11-21T13:55:54;19.85;;;10.32;;
65533;SDS011;53640;55.838;37.184;2022-11-21T14:06:55;18.42;;;10.30;;
65533;SDS011;53640;55.838;37.184;2022-11-21T14:09:49;16.20;;;10.30;;
65533;SDS011;53640;55.838;37.184;2022-11-21T14:12:29;17.35;;;9.98;;
65533;SDS011;53640;55.838;37.184;2022-11-21T14:17:57;16.45;;;8.55;;
65533;SDS011;53640;55.838;37.184;2022-11-21T14:20:46;16.52;;;9.40;;
65533;SDS011;53640;55.838;37.184;2022-11-21T14:23:16;16.55;;;10.05;;
65533;SDS011;53640;55.838;37.184;2022-11-21T14:25:53;20.40;;;9.75;;
65533;SDS011;53640;55.838;37.184;2022-11-21T14:28:32;18.77;;;10.25;;
65533;SDS011;53640;55.838;37.184;2022-11-21T14:31:09;17.58;;;10.00;;
65533;SDS011;53640;55.838;37.184;2022-11-21T14:33:46;20.60;;;10.38;;
65533;SDS011;53640;55.838;37.184;2022-11-21T14:36:24;20.38;;;9.73;;
65533;SDS011;53640;55.838;37.184;2022-11-21T14:39:17;18.83;;;9.93;;
65533;SDS011;53640;55.838;37.184;2022-11-21T14:42:04;18.27;;;9.32;;
65533;SDS011;53640;55.838;37.184;2022-11-21T14:45:04;12.93;;;8.00;;
65533;SDS011;53640;55.838;37.184;2022-11-21T14:47:53;13.85;;;7.82;;
65533;SDS011;53640;55.838;37.184;2022-11-21T14:50:28;19.98;;;9.63;;
65533;SDS011;53640;55.838;37.184;2022-11-21T14:52:59;18.35;;;10.13;;
65533;SDS011;53640;55.838;37.184;2022-11-21T14:55:30;15.45;;;9.32;;
65533;SDS011;53640;55.838;37.184;2022-11-21T14:57:58;21.40;;;10.68;;
65533;SDS011;53640;55.838;37.184;2022-11-21T15:00:39;18.07;;;9.83;;
65533;SDS011;53640;55.838;37.184;2022-11-21T15:06:12;23.48;;;11.32;;
65533;SDS011;53640;55.838;37.184;2022-11-21T15:09:25;19.77;;;11.02;;
65533;SDS011;53640;55.838;37.184;2022-11-21T15:15:48;21.40;;;11.70;;
65533;SDS011;53640;55.838;37.184;2022-11-21T15:18:35;24.63;;;12.02;;
65533;SDS011;53640;55.838;37.184;2022-11-21T15:21:35;21.45;;;11.73;;
65533;SDS011;53640;55.838;37.184;2022-11-21T15:31:21;25.40;;;12.00;;
65533;SDS011;53640;55.838;37.184;2022-11-21T15:34:50;24.92;;;12.82;;
65533;SDS011;53640;55.838;37.184;2022-11-21T15:37:25;26.17;;;13.07;;
65533;SDS011;53640;55.838;37.184;2022-11-21T16:02:57;18.38;;;10.32;;
65533;SDS011;53640;55.838;37.184;2022-11-21T16:24:35;17.15;;;10.05;;
65533;SDS011;53640;55.838;37.184;2022-11-21T17:00:56;20.25;;;10.43;;
65533;SDS011;53640;55.838;37.184;2022-11-21T17:03:25;20.33;;;10.52;;
65533;SDS011;53640;55.838;37.184;2022-11-21T17:05:57;20.25;;;11.18;;
65533;SDS011;53640;55.838;37.184;2022-11-21T17:08:24;17.02;;;10.23;;
65533;SDS011;53640;55.838;37.184;2022-11-21T17:10:52;20.40;;;9.98;;
65533;SDS011;53640;55.838;37.184;2022-11-21T17:13:19;25.13;;;11.52;;
65533;SDS011;53640;55.838;37.184;2022-11-21T17:15:46;22.52;;;10.80;;
65533;SDS011;53640;55.838;37.184;2022-11-21T17:18:12;17.13;;;9.38;;
65533;SDS011;53640;55.838;37.184;2022-11-21T17:20:39;17.95;;;9.60;;
65533;SDS011;53640;55.838;37.184;2022-11-21T17:23:05;18.70;;;10.25;;
65533;SDS011;53640;55.838;37.184;2022-11-21T17:25:31;17.33;;;10.48;;
65533;SDS011;53640;55.838;37.184;2022-11-21T17:27:58;16.95;;;10.10;;
65533;SDS011;53640;55.838;37.184;2022-11-21T17:30:25;18.08;;;9.82;;
65533;SDS011;53640;55.838;37.184;2022-11-21T17:32:51;19.13;;;10.50;;
65533;SDS011;53640;55.838;37.184;2022-11-21T17:35:18;16.98;;;10.05;;
65533;SDS011;53640;55.838;37.184;2022-11-21T17:37:44;21.42;;;10.90;;
65533;SDS011;53640;55.838;37.184;2022-11-21T17:40:11;16.45;;;9.13;;
65533;SDS011;53640;55.838;37.184;2022-11-21T17:42:38;19.45;;;10.40;;
65533;SDS011;53640;55.838;37.184;2022-11-21T17:45:08;17.45;;;9.90;;
65533;SDS011;53640;55.838;37.184;2022-11-21T17:47:34;19.23;;;10.10;;
65533;SDS011;53640;55.838;37.184;2022-11-21T17:50:01;17.88;;;10.68;;
65533;SDS011;53640;55.838;37.184;2022-11-21T17:52:29;25.27;;;11.05;;
65533;SDS011;53640;55.838;37.184;2022-11-21T17:54:57;19.20;;;10.50;;
65533;SDS011;53640;55.838;37.184;2022-11-21T17:57:23;21.95;;;11.20;;
65533;SDS011;53640;55.838;37.184;2022-11-21T17:59:50;20.08;;;11.18;;
65533;SDS011;53640;55.838;37.184;2022-11-21T18:02:17;20.40;;;10.07;;
65533;SDS011;53640;55.838;37.184;2022-11-21T18:04:45;19.88;;;9.77;;
65533;SDS011;53640;55.838;37.184;2022-11-21T18:07:11;20.88;;;10.40;;
65533;SDS011;53640;55.838;37.184;2022-11-21T18:09:38;19.00;;;10.85;;
65533;SDS011;53640;55.838;37.184;2022-11-21T18:12:04;18.35;;;10.32;;
65533;SDS011;53640;55.838;37.184;2022-11-21T18:14:31;23.30;;;10.43;;
65533;SDS011;53640;55.838;37.184;2022-11-21T18:16:57;22.25;;;11.38;;
65533;SDS011;53640;55.838;37.184;2022-11-21T18:19:23;21.55;;;11.60;;
65533;SDS011;53640;55.838;37.184;2022-11-21T18:21:50;22.92;;;10.98;;
65533;SDS011;53640;55.838;37.184;2022-11-21T18:24:16;19.58;;;10.88;;
65533;SDS011;53640;55.838;37.184;2022-11-21T18:26:43;25.35;;;11.95;;
65533;SDS011;53640;55.838;37.184;2022-11-21T18:29:09;23.95;;;11.85;;
65533;SDS011;53640;55.838;37.184;2022-11-21T18:31:36;19.20;;;9.98;;
65533;SDS011;53640;55.838;37.184;2022-11-21T18:34:05;20.95;;;11.02;;